Gosnells City, Western Australia

11:46 AM AWST on September 28, 2016 (GMT +0800)
Gosnells | | Change Station

Elev 39 ft 32.07 °S, 115.99 °E | Updated 1 minute ago

Clear
Clear
60.6 °F
Feels Like 60.6 °F
N
6.3
Wind Variable Wind from South
Gusts 13.0 mph

Today
High -- | Low -- °F
--% Chance of Precip.
Yesterday
High -- | Low -- °F
Precip. -- in
Pressure 30.21 in
Visibility -9999.0 miles
Clouds
Dew Point 34 °F
Humidity 36%
Rainfall 0.00 in
Snow Depth Not available.
5:57 AM 6:16 PM
Waning Crescent, 8% visible
METAR YPPH 280330Z 21013KT CAVOK 15/00 Q1023 NOSIG
Pressure 30.21 in
Visibility -9999.0 miles
Clouds
Dew Point 34 °F
Humidity 36%
Rainfall 0.00 in
Snow Depth Not available.
5:57 AM 6:16 PM
Waning Crescent, 8% visible
METAR YPPH 280330Z 21013KT CAVOK 15/00 Q1023 NOSIG

10-Day Weather Forecast

Almanac

Astronomy

Sep. 28, 2016 Rise Set
Actual Time
Civil Twilight
Nautical Twilight
Astronomical Twilight
Moon
Length of Visible Light
Length of Day
Tomorrow will be .
, % of the Moon is Illuminated

Today's Extremes

Country Highs Country Lows

Community

WunderPhotos

Upload Photos

1,942,203 photos uploaded!

WunderBlog® & News

Nearby

Air Quality

  Air Quality AQ Index Pollutant
Not available.

Snow Depth

Station Depth Elevation

Earthquake Activity

City Distance Mag. Time & Date
Minimum magnitude displayed is 2.5.

Coastal Water Temperatures

Place Temperature

Stations

Nearby Weather Stations

Station Location Temp. Windchill Dew Point Humidity Wind Precip. Elev Updated Type